createdAt,value
2019-05-17T00:00:23.233Z,74.10
2019-05-17T00:02:57.150Z,74.30
2019-05-17T00:05:27.353Z,74.30
2019-05-17T00:07:59.231Z,74.20
2019-05-17T00:10:29.648Z,74.30
2019-05-17T00:13:01.628Z,74.40
2019-05-17T00:15:32.001Z,74.60
2019-05-17T00:18:02.434Z,74.60
2019-05-17T00:20:34.288Z,74.70
2019-05-17T00:23:07.110Z,74.70
2019-05-17T00:25:37.766Z,74.50
2019-05-17T00:28:08.180Z,74.60
2019-05-17T00:30:38.633Z,74.50
2019-05-17T00:33:09.288Z,74.80
2019-05-17T00:35:39.666Z,74.80
2019-05-17T00:38:11.643Z,74.80
2019-05-17T00:40:42.038Z,75.00
2019-05-17T00:43:12.445Z,75.20
2019-05-17T00:45:42.817Z,75.00
2019-05-17T00:48:13.372Z,75.10
2019-05-17T00:50:43.777Z,75.20
2019-05-17T00:53:16.266Z,75.10
2019-05-17T00:55:46.701Z,75.20
2019-05-17T00:58:18.707Z,75.20
2019-05-17T01:00:49.196Z,75.30
2019-05-17T01:03:21.084Z,75.20
2019-05-17T01:05:51.551Z,75.20
2019-05-17T01:08:22.026Z,75.20
2019-05-17T01:10:54.002Z,75.30
2019-05-17T01:13:26.558Z,75.30
2019-05-17T01:15:56.761Z,75.50
2019-05-17T01:18:27.516Z,75.40
2019-05-17T01:20:57.985Z,75.50
2019-05-17T01:23:29.228Z,75.60
2019-05-17T01:25:59.645Z,75.50
2019-05-17T01:28:30.100Z,75.60
2019-05-17T01:31:00.471Z,75.50
2019-05-17T01:33:30.998Z,75.50
2019-05-17T01:36:01.381Z,75.60
2019-05-17T01:38:31.870Z,75.60
2019-05-17T01:41:02.335Z,75.60
2019-05-17T01:43:32.872Z,75.70
2019-05-17T01:46:03.378Z,75.70
2019-05-17T01:48:33.788Z,75.80
2019-05-17T01:51:04.176Z,75.80
2019-05-17T01:53:36.460Z,75.80
2019-05-17T01:56:08.153Z,75.80
2019-05-17T01:58:38.578Z,75.80
2019-05-17T02:01:08.966Z,76.00
2019-05-17T02:03:39.369Z,76.10
2019-05-17T02:06:09.834Z,76.20
2019-05-17T02:08:40.323Z,76.20
2019-05-17T02:11:10.785Z,76.40
2019-05-17T02:13:41.191Z,76.30
2019-05-17T02:16:11.823Z,76.20
2019-05-17T02:18:43.806Z,76.10
2019-05-17T02:21:16.671Z,76.10
2019-05-17T02:23:46.944Z,76.10
2019-05-17T02:26:18.952Z,76.00
2019-05-17T02:28:49.467Z,76.10
2019-05-17T02:31:20.678Z,76.10
2019-05-17T02:33:53.477Z,76.00
2019-05-17T02:36:23.505Z,76.20
2019-05-17T02:38:54.006Z,76.10
2019-05-17T02:41:24.518Z,76.20
2019-05-17T02:43:54.989Z,76.20
2019-05-17T02:46:25.464Z,76.20
2019-05-17T02:48:55.919Z,76.30
2019-05-17T02:51:26.528Z,76.30
2019-05-17T02:53:56.901Z,76.20
2019-05-17T02:56:27.558Z,76.30
2019-05-17T02:58:57.995Z,76.10
2019-05-17T03:01:28.493Z,76.00
2019-05-17T03:03:58.981Z,76.00
2019-05-17T03:06:32.897Z,75.90
2019-05-17T03:09:03.657Z,76.00
2019-05-17T03:11:34.148Z,76.00
2019-05-17T03:14:04.562Z,76.10
2019-05-17T03:16:36.497Z,76.20
2019-05-17T03:19:06.889Z,76.40
2019-05-17T03:21:37.274Z,76.50
2019-05-17T03:24:07.686Z,76.60
2019-05-17T03:26:38.043Z,76.50
2019-05-17T03:29:08.441Z,76.50
2019-05-17T03:31:44.536Z,76.50
2019-05-17T03:34:16.767Z,76.80
2019-05-17T03:36:46.899Z,76.60
2019-05-17T03:39:16.256Z,76.70
2019-05-17T03:41:46.627Z,76.80
2019-05-17T03:44:17.074Z,76.80
2019-05-17T03:46:47.451Z,76.80
2019-05-17T03:49:18.029Z,76.70
2019-05-17T03:51:48.477Z,76.60
2019-05-17T03:54:22.650Z,76.20
2019-05-17T03:56:55.399Z,76.20
2019-05-17T03:59:27.462Z,76.00
2019-05-17T04:01:57.914Z,75.70
2019-05-17T04:04:28.328Z,75.20
2019-05-17T04:07:03.151Z,75.20
2019-05-17T04:09:32.859Z,75.10
2019-05-17T04:12:04.932Z,75.10
2019-05-17T04:14:35.352Z,75.40
2019-05-17T04:17:05.832Z,75.60
2019-05-17T04:19:36.305Z,75.60
2019-05-17T04:22:06.687Z,75.70
2019-05-17T04:24:37.162Z,76.50
2019-05-17T04:27:07.573Z,76.90
2019-05-17T04:29:42.422Z,76.40
2019-05-17T04:32:12.991Z,76.20
2019-05-17T04:34:43.890Z,76.30
2019-05-17T04:37:14.472Z,76.60
2019-05-17T04:39:44.952Z,76.70
2019-05-17T04:42:15.460Z,76.80
2019-05-17T04:44:45.955Z,77.10
2019-05-17T04:47:16.414Z,77.10
2019-05-17T04:49:47.420Z,77.80
2019-05-17T04:52:17.943Z,76.30
2019-05-17T04:54:48.393Z,77.00
2019-05-17T04:57:18.792Z,75.60
2019-05-17T04:59:49.161Z,75.60
2019-05-17T05:02:23.617Z,75.40
2019-05-17T05:04:53.531Z,75.40
2019-05-17T05:07:24.088Z,75.90
2019-05-17T05:09:54.545Z,74.60
2019-05-17T05:12:26.432Z,74.20
2019-05-17T05:14:56.900Z,73.60
2019-05-17T05:17:27.362Z,73.60
2019-05-17T05:20:02.516Z,73.30
2019-05-17T05:22:33.089Z,71.20
2019-05-17T05:25:04.839Z,70.00
2019-05-17T05:27:35.261Z,70.40
2019-05-17T05:30:07.240Z,71.00
2019-05-17T05:32:37.672Z,71.40
2019-05-17T05:35:08.043Z,70.50
2019-05-17T05:37:38.614Z,69.70
2019-05-17T05:40:12.608Z,68.90
2019-05-17T05:42:42.998Z,69.20
2019-05-17T05:45:14.728Z,68.30
2019-05-17T05:47:45.137Z,67.20
2019-05-17T05:50:17.724Z,65.80
2019-05-17T05:52:48.229Z,66.10
2019-05-17T05:55:18.618Z,64.20
2019-05-17T05:57:49.120Z,62.60
2019-05-17T06:00:21.975Z,61.30
2019-05-17T06:02:52.313Z,55.90
2019-05-17T06:05:22.789Z,51.00
2019-05-17T06:07:53.278Z,50.10
2019-05-17T06:10:23.649Z,48.00
2019-05-17T06:12:55.579Z,46.60
2019-05-17T06:15:26.012Z,46.60
2019-05-17T06:17:56.393Z,45.70
2019-05-17T06:20:28.299Z,45.50
2019-05-17T06:22:58.678Z,46.20
2019-05-17T06:25:29.142Z,46.70
2019-05-17T06:28:01.431Z,44.60
2019-05-17T06:30:32.368Z,40.90
2019-05-17T06:33:02.871Z,37.50
2019-05-17T06:35:33.353Z,34.50
2019-05-17T06:38:04.598Z,33.40
2019-05-17T06:40:34.974Z,31.20
2019-05-17T06:43:05.397Z,29.60
2019-05-17T06:45:35.782Z,28.10
2019-05-17T06:48:06.191Z,26.50
2019-05-17T06:50:36.578Z,28.20
2019-05-17T06:53:06.989Z,28.50
2019-05-17T06:55:37.368Z,28.20
2019-05-17T06:58:07.778Z,27.20
2019-05-17T07:00:40.257Z,25.50
2019-05-17T07:03:10.245Z,23.80
2019-05-17T07:05:42.193Z,23.00
2019-05-17T07:08:12.627Z,23.30
2019-05-17T07:10:43.012Z,22.70
2019-05-17T07:13:14.885Z,23.80
2019-05-17T07:15:47.914Z,24.70
2019-05-17T07:18:19.462Z,25.00
2019-05-17T07:20:50.188Z,25.90
2019-05-17T07:23:20.786Z,26.30
2019-05-17T07:25:51.183Z,26.10
2019-05-17T07:28:21.665Z,27.00
2019-05-17T07:30:52.174Z,28.70
2019-05-17T07:33:22.549Z,30.00
2019-05-17T07:35:52.934Z,30.00
2019-05-17T07:38:23.387Z,29.00
2019-05-17T07:40:53.764Z,28.00
2019-05-17T07:43:24.164Z,27.00
2019-05-17T07:45:54.596Z,27.80
2019-05-17T07:48:25.002Z,30.70
2019-05-17T07:50:55.383Z,34.40
2019-05-17T07:53:25.842Z,37.20
2019-05-17T07:55:56.212Z,40.10
2019-05-17T07:58:26.628Z,42.10
2019-05-17T08:00:57.049Z,44.20
2019-05-17T08:03:29.720Z,46.20
2019-05-17T08:06:00.112Z,47.10
2019-05-17T08:08:31.368Z,47.40
2019-05-17T08:11:02.084Z,46.90
2019-05-17T08:13:33.812Z,45.50
2019-05-17T08:16:04.382Z,45.20
2019-05-17T08:18:34.879Z,44.30
2019-05-17T08:21:05.344Z,44.40
2019-05-17T08:23:40.075Z,45.00
2019-05-17T08:26:10.744Z,45.00
2019-05-17T08:28:41.315Z,44.80
2019-05-17T08:31:11.818Z,45.30
2019-05-17T08:33:43.679Z,44.50
2019-05-17T08:38:44.106Z,44.30
2019-05-17T08:43:47.014Z,46.30
2019-05-17T08:46:16.596Z,46.50
2019-05-17T08:48:49.385Z,46.10
2019-05-17T08:51:19.753Z,44.70
2019-05-17T08:53:50.285Z,42.30
2019-05-17T08:56:20.693Z,40.40
2019-05-17T08:58:51.164Z,39.60
2019-05-17T09:01:21.549Z,39.00
2019-05-17T09:03:52.112Z,39.50
2019-05-17T09:06:24.036Z,39.80
2019-05-17T09:08:54.530Z,40.60
2019-05-17T09:11:24.966Z,41.70
2019-05-17T09:13:58.444Z,42.70
2019-05-17T09:16:27.473Z,43.30
2019-05-17T09:19:00.324Z,44.00
2019-05-17T09:21:31.283Z,44.30
2019-05-17T09:24:02.823Z,43.60
2019-05-17T09:26:33.230Z,42.90
2019-05-17T09:29:05.339Z,42.80
2019-05-17T09:31:35.782Z,43.10
2019-05-17T09:34:06.177Z,42.80
2019-05-17T09:36:36.598Z,43.10
2019-05-17T09:39:09.470Z,42.90
2019-05-17T09:41:40.071Z,43.20
2019-05-17T09:44:15.924Z,43.60
2019-05-17T09:46:42.907Z,43.40
2019-05-17T09:49:13.411Z,43.20
2019-05-17T09:51:43.821Z,43.50
2019-05-17T09:54:14.254Z,44.10
2019-05-17T09:56:44.664Z,43.60
2019-05-17T09:59:15.114Z,43.80
2019-05-17T10:01:45.480Z,43.20
2019-05-17T10:04:15.933Z,43.90
2019-05-17T10:06:46.409Z,44.30
2019-05-17T10:09:19.483Z,44.90
2019-05-17T10:11:49.298Z,45.00
2019-05-17T10:14:27.718Z,44.80
2019-05-17T10:16:51.873Z,45.60
2019-05-17T10:19:23.620Z,46.00
2019-05-17T10:21:54.157Z,46.40
2019-05-17T10:24:35.973Z,46.50
2019-05-17T10:26:56.637Z,46.10
2019-05-17T10:29:27.038Z,46.20
2019-05-17T10:31:59.728Z,46.20
2019-05-17T10:34:29.536Z,45.40
2019-05-17T10:36:59.913Z,45.70
2019-05-17T10:39:30.314Z,45.90
2019-05-17T10:42:00.708Z,45.20
2019-05-17T10:44:43.068Z,46.00
2019-05-17T10:47:03.254Z,45.70
2019-05-17T10:49:33.668Z,46.30
2019-05-17T10:52:05.543Z,46.60
2019-05-17T10:54:35.915Z,47.40
2019-05-17T10:57:06.317Z,47.90
2019-05-17T10:59:36.685Z,48.10
2019-05-17T11:02:07.291Z,48.20
2019-05-17T11:04:40.212Z,48.00
2019-05-17T11:07:10.779Z,47.70
2019-05-17T11:09:41.269Z,47.10
2019-05-17T11:12:11.723Z,47.20
2019-05-17T11:14:50.703Z,46.80
2019-05-17T11:17:14.203Z,46.50
2019-05-17T11:19:46.040Z,46.10
2019-05-17T11:22:19.446Z,45.40
2019-05-17T11:24:49.830Z,44.20
2019-05-17T11:27:20.236Z,44.00
2019-05-17T11:29:50.713Z,44.20
2019-05-17T11:32:21.260Z,44.70
2019-05-17T11:34:51.671Z,44.90
2019-05-17T11:37:23.698Z,44.70
2019-05-17T11:39:54.304Z,45.00
2019-05-17T11:42:24.723Z,44.90
2019-05-17T11:44:55.187Z,44.70
2019-05-17T11:47:27.086Z,45.10
2019-05-17T11:49:57.515Z,45.10
2019-05-17T11:52:27.887Z,44.90
2019-05-17T11:54:59.810Z,45.00
2019-05-17T11:57:30.184Z,44.50
2019-05-17T12:00:00.573Z,44.00
2019-05-17T12:02:30.977Z,43.00
2019-05-17T12:05:02.893Z,43.30
2019-05-17T12:07:33.369Z,44.00
2019-05-17T12:10:07.178Z,43.70
2019-05-17T12:12:37.598Z,43.70
2019-05-17T12:15:09.254Z,44.00
2019-05-17T12:17:39.749Z,43.80
2019-05-17T12:20:10.438Z,43.40
2019-05-17T12:22:40.832Z,43.40
2019-05-17T12:25:14.152Z,43.40
2019-05-17T12:27:44.617Z,43.10
2019-05-17T12:30:15.436Z,42.70
2019-05-17T12:32:47.512Z,43.80
2019-05-17T12:35:19.534Z,44.60
2019-05-17T12:37:49.988Z,44.40
2019-05-17T12:40:20.514Z,43.80
2019-05-17T12:42:51.149Z,43.40
2019-05-17T12:45:22.989Z,44.20
2019-05-17T12:47:53.631Z,45.40
2019-05-17T12:50:24.146Z,45.80
2019-05-17T12:52:54.598Z,46.30
2019-05-17T12:55:25.029Z,46.70
2019-05-17T12:57:56.918Z,46.50
2019-05-17T13:00:27.378Z,46.20
2019-05-17T13:02:57.769Z,46.80
2019-05-17T13:05:28.262Z,47.30
2019-05-17T13:07:58.623Z,46.60
2019-05-17T13:10:29.164Z,46.90
2019-05-17T13:12:59.543Z,47.20
2019-05-17T13:15:29.967Z,46.60
2019-05-17T13:18:01.276Z,46.10
2019-05-17T13:20:31.815Z,46.10
2019-05-17T13:23:02.230Z,45.60
2019-05-17T13:25:34.171Z,44.70
2019-05-17T13:28:04.598Z,45.10
2019-05-17T13:30:36.481Z,45.10
2019-05-17T13:33:06.847Z,45.80
2019-05-17T13:35:37.365Z,46.90
2019-05-17T13:38:07.741Z,47.40
2019-05-17T13:40:39.851Z,47.50
2019-05-17T13:43:10.251Z,47.70
2019-05-17T13:45:43.704Z,47.30
2019-05-17T13:48:12.814Z,46.90
2019-05-17T13:50:43.325Z,47.70
2019-05-17T13:53:14.635Z,48.40
2019-05-17T13:55:45.091Z,49.50
2019-05-17T13:58:15.526Z,49.70
2019-05-17T14:00:45.998Z,50.00
2019-05-17T14:03:16.466Z,50.10
2019-05-17T14:05:46.961Z,50.60
2019-05-17T14:08:18.889Z,51.00
2019-05-17T14:10:49.479Z,51.20
2019-05-17T14:13:19.865Z,51.20
2019-05-17T14:15:50.338Z,51.40
2019-05-17T14:18:20.703Z,51.80
2019-05-17T14:20:51.226Z,52.10
2019-05-17T14:23:21.669Z,52.30
2019-05-17T14:25:52.083Z,52.50
2019-05-17T14:28:22.550Z,52.50
2019-05-17T14:30:53.024Z,52.30
2019-05-17T14:33:23.421Z,51.30
2019-05-17T14:35:53.894Z,50.00
2019-05-17T14:38:24.367Z,49.10
2019-05-17T14:41:10.171Z,48.30
2019-05-17T14:43:26.950Z,48.50
2019-05-17T14:45:57.365Z,49.20
2019-05-17T14:48:29.201Z,49.30
2019-05-17T14:50:59.610Z,49.30
2019-05-17T14:53:30.013Z,49.20
2019-05-17T14:56:01.279Z,49.40
2019-05-17T14:58:31.666Z,49.10
2019-05-17T15:01:02.114Z,48.90
2019-05-17T15:03:32.572Z,49.30
2019-05-17T15:06:03.035Z,49.50
2019-05-17T15:08:33.430Z,49.60
2019-05-17T15:11:03.899Z,49.60
2019-05-17T15:13:34.377Z,49.60
2019-05-17T15:16:05.499Z,49.60
2019-05-17T15:18:35.861Z,49.30
2019-05-17T15:21:07.135Z,48.90
2019-05-17T15:23:37.522Z,48.90
2019-05-17T15:26:07.948Z,48.80
2019-05-17T15:28:38.415Z,48.90
2019-05-17T15:31:08.907Z,48.90
2019-05-17T15:33:39.566Z,48.70
2019-05-17T15:36:10.066Z,48.90
2019-05-17T15:38:41.900Z,49.90
2019-05-17T15:41:12.306Z,49.40
2019-05-17T15:43:44.144Z,49.30
2019-05-17T15:46:14.552Z,49.50
2019-05-17T15:48:44.922Z,49.50
2019-05-17T15:51:15.341Z,49.70
2019-05-17T15:53:45.716Z,49.80
2019-05-17T15:56:16.132Z,49.70
2019-05-17T15:58:46.510Z,49.70
2019-05-17T16:01:16.963Z,49.90
2019-05-17T16:03:47.421Z,50.10
2019-05-17T16:06:17.945Z,50.00
2019-05-17T16:08:48.511Z,50.10
2019-05-17T16:11:18.914Z,50.10
2019-05-17T16:13:49.592Z,50.20
2019-05-17T16:16:21.674Z,50.00
2019-05-17T16:18:52.125Z,50.30
2019-05-17T16:21:24.324Z,50.50
2019-05-17T16:23:54.717Z,50.40
2019-05-17T16:26:25.253Z,50.30
2019-05-17T16:28:55.630Z,50.30
2019-05-17T16:31:26.029Z,50.40
2019-05-17T16:33:56.489Z,51.10
2019-05-17T16:36:27.144Z,51.40
2019-05-17T16:38:57.525Z,52.00
2019-05-17T16:41:29.503Z,52.30
2019-05-17T16:43:59.865Z,52.40
2019-05-17T16:46:30.301Z,52.50
2019-05-17T16:49:00.741Z,52.50
2019-05-17T16:51:31.214Z,52.50
2019-05-17T16:54:01.595Z,52.30
2019-05-17T16:56:33.576Z,52.20
2019-05-17T16:59:05.622Z,52.20
2019-05-17T17:01:36.026Z,52.40
2019-05-17T17:04:06.535Z,52.40
2019-05-17T17:06:37.229Z,52.50
2019-05-17T17:09:09.069Z,52.60
2019-05-17T17:11:39.584Z,52.80
2019-05-17T17:14:09.950Z,52.80
2019-05-17T17:16:41.881Z,52.90
2019-05-17T17:19:12.286Z,53.00
2019-05-17T17:21:42.699Z,53.10
2019-05-17T17:24:13.187Z,53.30
2019-05-17T17:26:43.633Z,53.40
2019-05-17T17:29:14.043Z,53.80
2019-05-17T17:31:44.407Z,54.10
2019-05-17T17:34:14.901Z,54.10
2019-05-17T17:36:45.317Z,53.90
2019-05-17T17:39:15.725Z,54.10
2019-05-17T17:41:46.134Z,54.10
2019-05-17T17:44:19.492Z,54.30
2019-05-17T17:46:49.946Z,54.60
2019-05-17T17:49:20.346Z,55.00
2019-05-17T17:51:52.343Z,55.00
2019-05-17T17:54:22.778Z,55.10
2019-05-17T17:56:54.763Z,55.00
2019-05-17T17:59:25.129Z,55.00
2019-05-17T18:01:55.528Z,54.70
2019-05-17T18:04:26.767Z,54.90
2019-05-17T18:06:57.214Z,55.10
2019-05-17T18:09:27.683Z,55.30
2019-05-17T18:11:58.097Z,55.40
2019-05-17T18:14:29.942Z,55.50
2019-05-17T18:17:00.382Z,55.70
2019-05-17T18:19:30.881Z,56.20
2019-05-17T18:22:02.221Z,56.60
2019-05-17T18:24:32.617Z,56.90
2019-05-17T18:27:03.098Z,57.10
2019-05-17T18:29:35.112Z,57.20
2019-05-17T18:32:07.069Z,57.00
2019-05-17T18:34:37.484Z,56.80
2019-05-17T18:37:09.345Z,56.90
2019-05-17T18:39:39.797Z,57.10
2019-05-17T18:42:10.255Z,57.40
2019-05-17T18:44:40.643Z,57.70
2019-05-17T18:47:11.059Z,58.00
2019-05-17T18:49:42.277Z,58.00
2019-05-17T18:52:12.849Z,58.10
2019-05-17T18:54:43.223Z,58.30
2019-05-17T18:57:13.630Z,58.50
2019-05-17T18:59:44.033Z,58.50
2019-05-17T19:02:14.423Z,59.00
2019-05-17T19:04:46.322Z,59.50
2019-05-17T19:07:16.692Z,59.90
2019-05-17T19:09:47.219Z,60.30
2019-05-17T19:12:17.672Z,60.50
2019-05-17T19:14:48.099Z,60.40
2019-05-17T19:17:18.480Z,60.40
2019-05-17T19:19:48.905Z,60.40
2019-05-17T19:22:19.283Z,60.60
2019-05-17T19:24:49.667Z,60.70
2019-05-17T19:27:20.894Z,60.80
2019-05-17T19:29:51.253Z,60.60
2019-05-17T19:32:21.675Z,60.40
2019-05-17T19:34:52.091Z,60.50
2019-05-17T19:37:22.507Z,60.50
2019-05-17T19:39:52.949Z,60.70
2019-05-17T19:42:23.504Z,60.80
2019-05-17T19:44:59.086Z,61.00
2019-05-17T19:47:26.044Z,61.20
2019-05-17T19:49:56.528Z,61.40
2019-05-17T19:52:27.088Z,61.50
2019-05-17T19:54:57.574Z,61.40
2019-05-17T19:57:31.099Z,61.20
2019-05-17T20:00:01.618Z,61.20
2019-05-17T20:02:32.126Z,61.20
2019-05-17T20:05:02.562Z,61.20
2019-05-17T20:07:37.911Z,61.00
2019-05-17T20:10:08.979Z,60.90
2019-05-17T20:12:39.495Z,60.80
2019-05-17T20:15:17.200Z,60.80
2019-05-17T20:17:43.189Z,60.90
2019-05-17T20:20:14.172Z,61.20
2019-05-17T20:22:44.582Z,61.50
2019-05-17T20:25:17.214Z,61.90
2019-05-17T20:27:47.610Z,62.30
2019-05-17T20:30:19.697Z,62.60
2019-05-17T20:32:50.086Z,62.70
2019-05-17T20:35:20.461Z,63.10
2019-05-17T20:37:50.867Z,63.00
2019-05-17T20:40:21.353Z,63.00
2019-05-17T20:42:51.747Z,63.10
2019-05-17T20:45:32.743Z,63.50
2019-05-17T20:47:55.758Z,63.70
2019-05-17T20:50:26.155Z,63.90
2019-05-17T20:52:56.600Z,64.50
2019-05-17T20:55:27.463Z,64.90
2019-05-17T20:57:57.951Z,65.10
2019-05-17T21:00:29.145Z,65.20
2019-05-17T21:02:59.565Z,65.50
2019-05-17T21:05:29.963Z,65.90
2019-05-17T21:08:00.365Z,66.10
2019-05-17T21:10:30.826Z,66.20
2019-05-17T21:13:02.181Z,66.30
2019-05-17T21:15:45.739Z,66.50
2019-05-17T21:18:04.722Z,66.60
2019-05-17T21:20:35.167Z,66.90
2019-05-17T21:23:05.597Z,67.30
2019-05-17T21:25:37.555Z,67.40
2019-05-17T21:28:07.977Z,67.70
2019-05-17T21:30:38.553Z,67.50
2019-05-17T21:33:09.138Z,67.50
2019-05-17T21:35:39.581Z,67.60
2019-05-17T21:38:09.997Z,68.00
2019-05-17T21:40:40.455Z,68.10
2019-05-17T21:43:10.948Z,68.10
2019-05-17T21:45:43.013Z,68.00
2019-05-17T21:48:14.897Z,68.20
2019-05-17T21:50:45.395Z,68.40
2019-05-17T21:53:17.491Z,68.50
2019-05-17T21:55:47.918Z,68.60
2019-05-17T21:58:20.434Z,68.50
2019-05-17T22:01:14.542Z,68.60
2019-05-17T22:03:45.092Z,68.70
2019-05-17T22:06:15.504Z,68.60
2019-05-17T22:08:46.898Z,68.80
2019-05-17T22:11:18.803Z,68.90
2019-05-17T22:13:49.288Z,68.90
2019-05-17T22:16:21.154Z,68.90
2019-05-17T22:18:51.579Z,68.90
2019-05-17T22:21:21.981Z,69.00
2019-05-17T22:23:53.831Z,69.30
2019-05-17T22:26:24.251Z,69.40
2019-05-17T22:28:54.639Z,69.50
2019-05-17T22:31:25.176Z,69.60
2019-05-17T22:33:55.671Z,70.00
2019-05-17T22:36:26.160Z,70.10
2019-05-17T22:38:58.115Z,70.20
2019-05-17T22:41:28.539Z,70.40
2019-05-17T22:43:58.913Z,70.60
2019-05-17T22:46:36.092Z,70.90
2019-05-17T22:49:01.418Z,71.00
2019-05-17T22:51:31.806Z,71.20
2019-05-17T22:54:02.317Z,71.40
2019-05-17T22:56:34.158Z,71.50
2019-05-17T22:59:04.599Z,71.50
2019-05-17T23:01:35.001Z,71.60
2019-05-17T23:04:05.385Z,71.80
2019-05-17T23:06:35.825Z,71.70
2019-05-17T23:09:06.732Z,71.60
2019-05-17T23:11:37.124Z,71.70
2019-05-17T23:14:07.577Z,71.60
2019-05-17T23:16:50.488Z,71.80
2019-05-17T23:19:13.829Z,71.90
2019-05-17T23:21:44.270Z,72.00
2019-05-17T23:24:16.162Z,71.80
2019-05-17T23:26:46.605Z,71.80
2019-05-17T23:29:17.020Z,71.70
2019-05-17T23:31:48.969Z,71.90
2019-05-17T23:34:19.387Z,72.10
2019-05-17T23:36:49.854Z,71.90
2019-05-17T23:39:20.337Z,72.00
2019-05-17T23:41:50.708Z,72.00
2019-05-17T23:44:21.180Z,71.90
2019-05-17T23:47:06.051Z,72.20
2019-05-17T23:49:23.989Z,72.50
2019-05-17T23:51:54.428Z,72.60
2019-05-17T23:54:26.270Z,72.70
2019-05-17T23:56:56.682Z,72.70
2019-05-17T23:59:27.069Z,72.70
